Time;durP1;ratioP1;P1;durP2;ratioP2;P2;SDS_P1;SDS_P2;PMS_P1;PMS_P2;Temp;Humidity;BMP_temperature;BMP_pressure;BME280_temperature;BME280_humidity;BME280_pressure;Samples;Min_cycle;Max_cycle;Signal;HPM_P1;HPM_P2
2023/01/10 00:00:48;;;;;;;;;0.00;0.00;;;;;21.80;44.48;101223.84;5065352;27;45450;-81
2023/01/10 00:03:19;;;;;;;;;0.00;0.00;;;;;21.61;44.26;101192.25;5053649;28;45418;-82
2023/01/10 00:05:44;;;;;;;;;0.00;0.00;;;;;21.66;44.18;101191.94;5049442;28;45770;-85
2023/01/10 00:08:14;;;;;;;;;0.00;0.00;;;;;21.92;43.97;101236.34;5071857;28;47069;-85
2023/01/10 00:10:40;;;;;;;;;1.00;0.00;;;;;21.89;43.65;101241.88;5067388;28;45628;-85
2023/01/10 00:13:23;;;;;;;;;0.00;0.00;;;;;21.85;43.46;101235.06;5060828;28;45422;-86
2023/01/10 00:15:53;;;;;;;;;2.00;0.00;;;;;21.89;43.45;101233.03;5065677;27;45525;-85
2023/01/10 00:18:19;;;;;;;;;1.25;0.00;;;;;21.73;43.32;101218.06;5084761;27;45319;-83
2023/01/10 00:20:46;;;;;;;;;0.00;0.00;;;;;21.88;43.48;101245.50;5047427;28;45325;-84
2023/01/10 00:23:12;;;;;;;;;0.00;0.00;;;;;21.70;43.79;101230.75;5063436;28;45312;-84
2023/01/10 00:25:38;;;;;;;;;0.00;0.00;;;;;21.77;43.24;101238.22;5073925;27;45490;-84
2023/01/10 00:28:10;;;;;;;;;1.00;0.00;;;;;21.80;43.00;101247.84;5059028;27;45609;-85
2023/01/10 00:30:38;;;;;;;;;0.00;0.00;;;;;21.76;43.17;101248.97;5061359;28;45935;-84
2023/01/10 00:33:04;;;;;;;;;0.00;0.00;;;;;21.76;43.50;101251.63;5058269;28;45717;-82
2023/01/10 00:35:30;;;;;;;;;2.00;0.50;;;;;21.76;43.09;101263.16;5053345;28;45529;-81
2023/01/10 00:38:00;;;;;;;;;0.00;0.00;;;;;21.71;43.41;101257.28;5057816;28;50700;-81
2023/01/10 00:40:26;;;;;;;;;1.00;0.00;;;;;21.84;43.51;101275.13;5063902;27;45779;-81
2023/01/10 00:45:35;;;;;;;;;2.25;0.00;;;;;21.74;43.34;101269.53;5063745;28;45368;-82
2023/01/10 00:48:01;;;;;;;;;2.00;0.00;;;;;21.80;43.12;101283.31;5070898;28;47185;-82
2023/01/10 00:50:26;;;;;;;;;1.00;0.00;;;;;21.80;43.13;101282.47;5063424;27;45399;-80
2023/01/10 00:52:51;;;;;;;;;2.00;0.00;;;;;21.63;43.06;101256.06;5070681;28;45303;-80
2023/01/10 00:55:17;;;;;;;;;0.00;0.00;;;;;21.74;42.88;101283.72;5063936;28;45275;-80
2023/01/10 00:57:42;;;;;;;;;1.75;0.00;;;;;21.68;42.72;101269.94;5057862;28;48199;-82
2023/01/10 01:00:09;;;;;;;;;1.00;0.75;;;;;21.64;42.74;101268.41;5063666;28;45732;-81
2023/01/10 01:02:34;;;;;;;;;1.25;0.00;;;;;21.61;42.58;101269.47;5075018;28;46220;-85
2023/01/10 01:05:00;;;;;;;;;0.00;0.00;;;;;21.58;42.87;101275.88;5064966;28;45465;-86
2023/01/10 01:07:25;;;;;;;;;0.00;0.00;;;;;21.73;42.44;101300.66;5060179;28;46322;-86
2023/01/10 01:12:35;;;;;;;;;3.00;0.00;;;;;21.72;42.63;101308.75;5063483;28;45466;-84
2023/01/10 01:15:00;;;;;;;;;0.00;0.00;;;;;21.63;42.79;101280.88;5069748;27;45388;-85
2023/01/10 01:17:26;;;;;;;;;0.00;0.00;;;;;21.57;43.05;101278.63;5054622;28;47189;-84
2023/01/10 01:19:51;;;;;;;;;0.00;0.00;;;;;21.60;42.49;101295.28;5049432;28;45496;-86
2023/01/10 01:22:16;;;;;;;;;2.75;0.75;;;;;21.57;42.61;101282.16;5070403;28;45367;-86
2023/01/10 01:24:42;;;;;;;;;2.25;1.00;;;;;21.68;42.28;101310.75;5069167;28;45541;-86
2023/01/10 01:27:07;;;;;;;;;1.25;0.00;;;;;21.58;42.45;101298.97;5070998;27;45410;-85
2023/01/10 01:29:32;;;;;;;;;2.25;0.00;;;;;21.70;42.54;101319.50;5055441;28;45455;-87
2023/01/10 01:31:58;;;;;;;;;1.00;0.00;;;;;21.55;42.48;101297.38;5071191;27;45395;-86
2023/01/10 01:34:23;;;;;;;;;0.00;0.00;;;;;21.67;42.64;101327.69;5071823;28;45541;-86
2023/01/10 01:36:50;;;;;;;;;0.00;0.00;;;;;21.54;42.62;101319.63;5058187;28;47495;-87
2023/01/10 01:39:16;;;;;;;;;0.25;0.00;;;;;21.68;42.46;101333.88;5074769;28;45668;-86
2023/01/10 01:41:56;;;;;;;;;0.00;0.00;;;;;21.48;42.42;101300.50;5068494;28;45390;-86
2023/01/10 01:44:22;;;;;;;;;0.00;0.00;;;;;21.63;42.27;101334.16;5072330;27;45569;-86
2023/01/10 01:47:14;;;;;;;;;0.00;0.00;;;;;21.54;42.13;101310.78;5062847;28;48155;-82
2023/01/10 01:49:42;;;;;;;;;0.00;0.00;;;;;21.63;42.39;101330.66;5068663;27;45740;-81
2023/01/10 01:52:12;;;;;;;;;2.50;0.00;;;;;21.61;42.36;101328.94;5070074;28;45325;-83
2023/01/10 01:54:38;;;;;;;;;0.00;0.00;;;;;21.50;42.00;101298.63;5069134;28;45611;-81
2023/01/10 01:57:11;;;;;;;;;0.00;0.00;;;;;21.64;42.34;101321.69;5067896;28;52997;-81
2023/01/10 01:59:40;;;;;;;;;0.50;0.00;;;;;21.65;42.40;101318.94;5050480;28;45788;-81
2023/01/10 02:02:14;;;;;;;;;0.00;0.00;;;;;21.66;41.89;101322.47;5063614;27;45444;-81
2023/01/10 02:05:01;;;;;;;;;0.25;0.00;;;;;21.56;41.90;101319.53;5054625;28;45459;-82
2023/01/10 02:07:28;;;;;;;;;2.75;0.00;;;;;21.65;42.54;101340.25;5052253;28;47277;-82
2023/01/10 02:09:58;;;;;;;;;0.00;0.00;;;;;21.63;42.15;101343.97;5071293;28;45284;-81
2023/01/10 02:12:25;;;;;;;;;1.00;0.00;;;;;21.59;42.11;101349.47;5064110;28;45476;-81
2023/01/10 02:14:51;;;;;;;;;1.75;0.00;;;;;21.64;42.37;101359.84;5060299;28;45650;-81
2023/01/10 02:17:16;;;;;;;;;0.00;0.00;;;;;21.63;42.19;101371.44;5067624;28;57218;-81
2023/01/10 02:19:49;;;;;;;;;0.25;0.00;;;;;21.64;42.22;101364.31;5068556;27;45458;-82
2023/01/10 02:22:24;;;;;;;;;1.00;0.00;;;;;21.61;42.23;101374.22;5070278;28;45361;-81
2023/01/10 02:25:24;;;;;;;;;0.00;0.00;;;;;21.62;41.68;101375.09;5070675;27;45433;-81
2023/01/10 02:28:27;;;;;;;;;0.00;0.00;;;;;21.61;41.76;101376.88;5053715;27;47199;-81
2023/01/10 02:31:04;;;;;;;;;0.00;0.00;;;;;21.60;42.27;101383.16;5090831;27;45540;-83
2023/01/10 02:33:44;;;;;;;;;0.00;0.00;;;;;21.60;41.71;101392.94;5086135;27;45362;-83
2023/01/10 02:36:57;;;;;;;;;1.50;0.00;;;;;21.59;41.99;101386.78;5062761;27;45416;-82
2023/01/10 02:39:31;;;;;;;;;4.75;0.75;;;;;21.37;41.47;101349.97;5030680;27;46295;-83
2023/01/10 02:42:08;;;;;;;;;0.50;0.50;;;;;21.56;41.53;101392.28;5096843;27;45577;-85
2023/01/10 02:44:44;;;;;;;;;0.75;0.00;;;;;21.52;41.78;101384.59;5054354;28;45553;-79
2023/01/10 02:47:12;;;;;;;;;0.75;0.00;;;;;21.56;41.95;101394.09;5065663;27;45521;-81
2023/01/10 02:49:43;;;;;;;;;1.75;0.00;;;;;21.56;41.68;101394.94;5058371;28;47159;-80
2023/01/10 02:52:09;;;;;;;;;1.00;0.00;;;;;21.37;42.09;101363.28;5058735;27;45592;-79
2023/01/10 02:54:35;;;;;;;;;0.00;0.00;;;;;21.43;41.79;101388.66;5059460;27;45376;-79
2023/01/10 02:57:03;;;;;;;;;0.00;0.00;;;;;21.54;41.99;101414.66;5054332;27;45817;-80
2023/01/10 02:59:38;;;;;;;;;0.00;0.00;;;;;21.54;41.50;101419.97;5069422;27;48616;-81
2023/01/10 03:02:03;;;;;;;;;0.00;0.00;;;;;21.49;42.00;101412.28;5072464;27;45561;-81
2023/01/10 03:04:53;;;;;;;;;0.00;0.00;;;;;21.53;41.83;101413.81;5083527;27;45296;-81
2023/01/10 03:07:39;;;;;;;;;1.00;0.25;;;;;21.52;41.93;101408.56;5049883;27;45504;-81
2023/01/10 03:10:07;;;;;;;;;1.50;0.00;;;;;21.46;41.62;101393.84;5091086;27;46396;-80
2023/01/10 03:12:43;;;;;;;;;1.50;0.00;;;;;21.51;41.56;101398.84;5087992;27;45394;-82
2023/01/10 03:15:12;;;;;;;;;1.25;0.00;;;;;21.50;41.55;101407.81;5051803;28;45387;-81
2023/01/10 03:17:38;;;;;;;;;0.00;0.00;;;;;21.46;41.90;101396.50;5057371;28;45608;-82
2023/01/10 03:20:05;;;;;;;;;0.00;0.00;;;;;21.47;41.33;101395.53;5066823;27;45525;-82
2023/01/10 03:22:32;;;;;;;;;0.75;0.00;;;;;21.47;41.56;101398.19;5070838;27;45316;-81
2023/01/10 03:25:00;;;;;;;;;3.00;0.00;;;;;21.39;41.52;101390.66;5061285;27;45350;-81
2023/01/10 03:27:35;;;;;;;;;0.25;0.00;;;;;21.31;41.32;101381.44;5073284;27;45365;-81
2023/01/10 03:30:22;;;;;;;;;0.00;0.00;;;;;21.49;41.66;101401.63;5088807;27;45386;-81
2023/01/10 03:32:47;;;;;;;;;2.00;0.00;;;;;21.43;41.57;101401.97;5073523;27;45603;-81
2023/01/10 03:35:13;;;;;;;;;1.00;0.00;;;;;21.33;41.45;101399.00;5093856;27;45928;-82
2023/01/10 03:38:06;;;;;;;;;2.25;0.00;;;;;21.47;41.81;101423.97;5067454;27;45450;-82
2023/01/10 03:40:49;;;;;;;;;0.75;0.00;;;;;21.34;41.33;101397.22;5055776;28;47282;-82
2023/01/10 03:46:22;;;;;;;;;0.00;0.00;;;;;21.31;41.79;101397.41;5066764;27;45487;-82
2023/01/10 03:48:48;;;;;;;;;1.25;0.00;;;;;21.40;41.31;101413.66;5056678;27;45985;-81
2023/01/10 03:51:16;;;;;;;;;0.00;0.00;;;;;21.43;41.37;101426.78;5065743;28;47461;-81
2023/01/10 03:53:41;;;;;;;;;0.00;0.00;;;;;21.41;41.15;101427.84;5060256;27;45633;-82
2023/01/10 03:56:07;;;;;;;;;0.50;0.00;;;;;21.30;41.78;101401.88;5068778;27;52840;-82
2023/01/10 03:58:32;;;;;;;;;0.50;0.00;;;;;21.35;41.51;101418.41;5070243;27;45360;-82
2023/01/10 04:00:58;;;;;;;;;0.00;0.00;;;;;21.38;41.47;101428.03;5069743;27;46244;-81
2023/01/10 04:03:23;;;;;;;;;1.25;0.00;;;;;21.31;41.42;101414.22;5061249;27;47083;-82
2023/01/10 04:05:49;;;;;;;;;0.00;0.00;;;;;21.34;41.57;101423.84;5071704;27;45297;-81
2023/01/10 04:08:14;;;;;;;;;2.00;0.00;;;;;21.25;41.49;101406.63;5072685;27;45304;-80
2023/01/10 04:10:40;;;;;;;;;1.50;0.00;;;;;21.26;41.09;101410.16;5079428;27;57505;-80
2023/01/10 04:13:05;;;;;;;;;1.00;1.00;;;;;21.41;41.54;101433.19;5081082;27;45344;-81
2023/01/10 04:15:31;;;;;;;;;0.00;0.00;;;;;21.43;41.59;101440.09;5074332;27;45527;-81
2023/01/10 04:17:56;;;;;;;;;0.00;0.00;;;;;21.26;41.65;101403.00;5078047;27;45306;-80
2023/01/10 04:20:26;;;;;;;;;0.00;0.00;;;;;21.43;41.27;101432.13;5071364;27;45266;-81
2023/01/10 04:22:53;;;;;;;;;0.00;0.00;;;;;21.45;41.61;101439.16;5075697;27;45497;-81
2023/01/10 04:25:19;;;;;;;;;0.75;0.00;;;;;21.19;41.07;101397.19;5077139;27;45434;-80
2023/01/10 04:27:44;;;;;;;;;2.00;0.00;;;;;21.24;41.47;101405.75;5077437;27;45386;-80
2023/01/10 04:30:10;;;;;;;;;3.00;0.00;;;;;21.37;41.33;101428.97;5075748;27;47619;-80
2023/01/10 04:32:35;;;;;;;;;0.00;0.00;;;;;21.43;41.47;101436.59;5058096;27;45414;-82
2023/01/10 04:35:01;;;;;;;;;1.00;0.00;;;;;21.43;41.43;101440.09;5060148;28;45420;-82
2023/01/10 04:37:26;;;;;;;;;0.00;0.00;;;;;21.21;41.42;101405.09;5068571;27;45574;-82
2023/01/10 04:39:51;;;;;;;;;0.00;0.00;;;;;21.38;41.67;101442.19;5061534;27;64533;-86
2023/01/10 04:42:17;;;;;;;;;2.00;0.00;;;;;21.42;41.15;101462.38;5079540;27;45324;-87
2023/01/10 04:44:42;;;;;;;;;1.00;0.00;;;;;21.44;41.14;101467.59;5058436;27;47958;-88
2023/01/10 04:47:08;;;;;;;;;0.00;0.00;;;;;21.33;41.09;101435.44;5071050;27;50586;-83
2023/01/10 04:49:33;;;;;;;;;0.00;0.00;;;;;21.31;41.52;101437.34;5061231;27;47153;-83
2023/01/10 04:51:59;;;;;;;;;1.00;0.00;;;;;21.29;41.24;101444.56;5064954;27;45502;-83
2023/01/10 04:54:24;;;;;;;;;0.00;0.00;;;;;21.21;41.16;101426.38;5069787;27;45454;-84
2023/01/10 04:56:49;;;;;;;;;0.00;0.00;;;;;21.09;41.21;101404.06;5074831;27;45408;-85
2023/01/10 04:59:15;;;;;;;;;0.25;0.00;;;;;21.21;41.26;101419.28;5075184;27;50594;-85
2023/01/10 05:01:40;;;;;;;;;0.00;0.00;;;;;21.28;41.38;101434.88;5056990;27;45398;-80
2023/01/10 05:04:06;;;;;;;;;0.00;0.00;;;;;21.26;41.11;101424.31;5071414;28;45585;-81
2023/01/10 05:06:32;;;;;;;;;0.00;0.00;;;;;21.39;41.46;101451.06;5062665;27;45582;-77
2023/01/10 05:08:57;;;;;;;;;1.00;0.00;;;;;21.39;41.33;101448.41;5088491;27;47312;-78
2023/01/10 05:11:23;;;;;;;;;1.00;0.00;;;;;21.18;40.88;101410.63;5062606;27;45411;-79
2023/01/10 05:13:48;;;;;;;;;0.75;0.00;;;;;21.26;41.23;101434.09;5051452;27;45244;-81
2023/01/10 05:16:14;;;;;;;;;0.00;0.00;;;;;21.33;41.10;101441.63;5067004;27;45439;-81
2023/01/10 05:18:40;;;;;;;;;0.75;0.00;;;;;21.33;40.93;101440.75;5053867;27;47234;-81
2023/01/10 05:21:08;;;;;;;;;0.50;0.00;;;;;21.26;40.96;101420.78;5059300;27;47228;-80
2023/01/10 05:23:33;;;;;;;;;0.00;0.00;;;;;21.35;41.39;101439.72;5057967;27;45391;-82
2023/01/10 05:26:13;;;;;;;;;0.75;0.00;;;;;21.35;41.33;101433.53;5071193;27;45582;-80
2023/01/10 05:28:39;;;;;;;;;1.25;0.00;;;;;21.28;41.23;101418.88;5072410;27;45433;-82
2023/01/10 05:31:06;;;;;;;;;1.75;0.00;;;;;21.28;41.02;101429.53;5084935;27;45570;-82
2023/01/10 05:33:32;;;;;;;;;0.00;0.00;;;;;21.15;40.91;101416.97;5080352;27;45481;-83
2023/01/10 05:36:00;;;;;;;;;0.00;0.00;;;;;21.29;40.82;101444.56;5071269;27;45264;-83
2023/01/10 05:38:27;;;;;;;;;0.00;0.00;;;;;21.28;40.93;101437.53;5059783;27;46800;-83
2023/01/10 05:40:57;;;;;;;;;0.00;0.00;;;;;21.33;41.17;101436.28;5067681;27;46292;-83
2023/01/10 05:43:23;;;;;;;;;0.00;0.00;;;;;21.15;41.22;101406.34;5073363;27;45336;-79
2023/01/10 05:45:48;;;;;;;;;1.00;0.00;;;;;21.22;41.22;101428.97;5077897;27;45623;-79
2023/01/10 05:48:14;;;;;;;;;0.75;0.00;;;;;21.14;41.05;101412.63;5076455;27;47705;-79
2023/01/10 05:50:39;;;;;;;;;1.25;0.00;;;;;21.14;41.25;101411.75;5075778;27;45705;-79
2023/01/10 05:53:06;;;;;;;;;0.00;0.00;;;;;21.26;41.28;101434.94;5088816;27;45540;-79
2023/01/10 05:55:32;;;;;;;;;1.00;0.00;;;;;21.17;40.81;101409.75;5091104;27;45667;-84
2023/01/10 05:57:57;;;;;;;;;4.00;0.00;;;;;21.19;40.98;101407.84;5069705;27;46289;-85
2023/01/10 06:00:23;;;;;;;;;0.00;0.00;;;;;21.05;40.99;101391.88;5053017;27;45462;-84
2023/01/10 06:02:48;;;;;;;;;1.00;0.00;;;;;21.12;40.86;101409.16;5055459;28;45543;-84
2023/01/10 06:05:14;;;;;;;;;0.00;0.00;;;;;21.16;41.41;101407.19;5055143;27;45221;-82
2023/01/10 06:07:39;;;;;;;;;0.75;0.00;;;;;21.14;41.16;101401.97;5060845;27;46968;-82
2023/01/10 06:10:05;;;;;;;;;0.25;0.00;;;;;21.17;40.89;101412.41;5056146;27;45494;-82
2023/01/10 06:12:30;;;;;;;;;0.00;0.00;;;;;21.04;41.59;101391.00;5095401;27;45527;-77
2023/01/10 06:14:56;;;;;;;;;0.00;0.00;;;;;21.29;41.54;101425.94;5089961;27;45305;-80
2023/01/10 06:17:21;;;;;;;;;0.00;0.00;;;;;21.17;42.06;101415.06;5068868;28;45495;-83
2023/01/10 06:19:47;;;;;;;;;1.00;0.00;;;;;21.18;41.84;101410.63;5077357;27;46025;-81
2023/01/10 06:22:12;;;;;;;;;0.00;0.00;;;;;21.23;42.24;101414.72;5068137;28;45431;-80
2023/01/10 06:24:37;;;;;;;;;0.00;0.00;;;;;21.33;42.76;101420.31;5060713;27;45696;-86
2023/01/10 06:27:03;;;;;;;;;0.00;0.00;;;;;21.37;42.40;101427.19;5056429;27;59188;-87
2023/01/10 06:29:28;;;;;;;;;0.00;0.00;;;;;21.33;42.34;101407.00;5075147;27;46322;-81
2023/01/10 06:31:54;;;;;;;;;0.00;0.00;;;;;21.36;42.52;101408.63;5052794;27;45528;-82
2023/01/10 06:34:19;;;;;;;;;0.00;0.00;;;;;21.39;42.32;101421.78;5085174;27;57933;-81
2023/01/10 06:36:45;;;;;;;;;0.00;0.00;;;;;21.40;42.43;101426.97;5068854;27;47480;-81
2023/01/10 06:39:10;;;;;;;;;0.00;0.00;;;;;21.47;42.46;101435.47;5067634;28;45477;-80
2023/01/10 06:41:35;;;;;;;;;0.00;0.00;;;;;21.43;42.66;101431.28;5068671;27;45277;-80
2023/01/10 06:44:01;;;;;;;;;0.00;0.00;;;;;21.32;42.61;101412.41;5089648;27;45524;-81
2023/01/10 06:46:26;;;;;;;;;1.00;0.00;;;;;21.35;42.32;101415.75;5079214;27;47217;-81
2023/01/10 06:48:51;;;;;;;;;0.00;0.00;;;;;21.16;42.34;101391.19;5073525;27;45407;-82
2023/01/10 06:51:17;;;;;;;;;0.00;0.00;;;;;21.37;42.18;101424.53;5077013;27;45654;-85
2023/01/10 06:53:43;;;;;;;;;0.00;0.00;;;;;21.35;42.59;101426.41;5070113;27;45479;-80
2023/01/10 06:56:09;;;;;;;;;0.00;0.00;;;;;21.31;42.11;101419.56;5070973;27;48210;-86
2023/01/10 06:58:37;;;;;;;;;1.00;0.00;;;;;21.33;42.35;101430.97;5074908;27;45344;-83
2023/01/10 07:01:06;;;;;;;;;1.25;0.00;;;;;21.46;42.42;101443.56;5057755;28;45334;-84
2023/01/10 07:03:32;;;;;;;;;0.00;0.00;;;;;21.51;42.39;101449.47;5072697;27;45383;-81
2023/01/10 07:06:01;;;;;;;;;2.25;0.00;;;;;21.35;42.53;101431.72;5051699;27;48156;-81
2023/01/10 07:08:26;;;;;;;;;0.00;0.00;;;;;21.36;42.58;101433.44;5051306;27;45793;-80
2023/01/10 07:10:52;;;;;;;;;0.00;0.00;;;;;21.36;42.77;101427.28;5070132;27;45304;-75
2023/01/10 07:13:17;;;;;;;;;1.00;0.00;;;;;21.55;42.85;101446.53;5055565;27;45344;-76
2023/01/10 07:15:42;;;;;;;;;0.00;0.00;;;;;21.46;42.21;101428.47;5088697;27;45506;-77
2023/01/10 07:18:08;;;;;;;;;0.00;0.00;;;;;21.47;42.60;101421.31;5077791;27;45291;-76
2023/01/10 07:20:33;;;;;;;;;1.00;0.00;;;;;21.60;42.42;101435.56;5066603;27;52385;-76
2023/01/10 07:22:59;;;;;;;;;0.00;0.00;;;;;21.66;43.13;101437.03;5055343;27;46162;-75
2023/01/10 07:25:27;;;;;;;;;0.00;0.00;;;;;21.67;42.77;101436.91;5050961;28;46845;-74
2023/01/10 07:27:56;;;;;;;;;0.00;0.00;;;;;21.56;43.05;101416.25;5056709;28;45589;-75
2023/01/10 07:30:22;;;;;;;;;0.00;0.00;;;;;21.70;42.68;101434.03;5092545;27;45305;-75
2023/01/10 07:32:57;;;;;;;;;0.75;0.00;;;;;21.71;43.25;101437.56;5085876;27;45351;-75
2023/01/10 07:35:23;;;;;;;;;0.00;0.00;;;;;21.70;43.01;101434.03;5073196;27;45531;-77
2023/01/10 07:37:48;;;;;;;;;0.00;0.00;;;;;21.66;43.21;101427.22;5084571;27;45975;-77
2023/01/10 07:40:14;;;;;;;;;0.00;0.00;;;;;21.56;43.09;101405.59;5075392;27;45425;-77
2023/01/10 07:42:39;;;;;;;;;0.00;0.00;;;;;21.58;42.95;101409.06;5094518;27;45437;-77
2023/01/10 07:45:07;;;;;;;;;4.75;0.75;;;;;21.54;42.75;101401.34;5080955;27;58629;-77
2023/01/10 07:47:32;;;;;;;;;1.00;0.00;;;;;21.62;43.04;101409.72;5083994;27;45457;-77
2023/01/10 07:49:58;;;;;;;;;0.00;0.00;;;;;21.66;42.79;101413.88;5079242;27;45509;-77
2023/01/10 07:52:23;;;;;;;;;0.00;0.00;;;;;21.62;43.41;101409.72;5086875;27;45501;-77
2023/01/10 07:54:49;;;;;;;;;1.25;0.50;;;;;21.67;42.93;101420.91;5092106;27;46723;-77
2023/01/10 07:57:17;;;;;;;;;1.50;0.00;;;;;21.75;42.88;101431.94;5064244;28;47742;-77
2023/01/10 07:59:42;;;;;;;;;3.25;0.00;;;;;21.63;43.06;101410.56;5074837;27;45313;-78
2023/01/10 08:02:09;;;;;;;;;0.00;0.00;;;;;21.60;43.25;101406.25;5088073;27;45495;-77
2023/01/10 08:04:34;;;;;;;;;1.25;1.00;;;;;21.58;43.11;101401.06;5053978;27;48338;-77
2023/01/10 08:07:00;;;;;;;;;0.50;0.00;;;;;21.59;43.19;101400.09;5068325;28;45392;-77
2023/01/10 08:09:25;;;;;;;;;3.00;0.00;;;;;21.65;43.32;101414.81;5069576;27;45388;-77
2023/01/10 08:11:51;;;;;;;;;3.00;0.00;;;;;21.61;43.21;101408.84;5077060;27;46451;-77
2023/01/10 08:14:16;;;;;;;;;0.00;0.00;;;;;21.74;43.34;101432.91;5088187;27;60203;-77
2023/01/10 08:16:41;;;;;;;;;0.00;0.00;;;;;21.66;42.98;101413.03;5084528;27;45399;-77
2023/01/10 08:19:07;;;;;;;;;2.75;1.00;;;;;21.78;43.02;101436.25;5064442;27;45438;-77
2023/01/10 08:21:32;;;;;;;;;2.00;0.50;;;;;21.63;42.73;101405.25;5073441;27;45421;-77
2023/01/10 08:23:58;;;;;;;;;0.00;0.00;;;;;21.75;43.18;101426.63;5055703;27;46847;-77
2023/01/10 08:26:23;;;;;;;;;1.00;0.00;;;;;21.70;43.06;101417.22;5069357;27;49503;-77
2023/01/10 08:28:48;;;;;;;;;0.75;0.00;;;;;21.76;43.33;101430.13;5071946;27;45514;-77
2023/01/10 08:31:14;;;;;;;;;0.75;0.00;;;;;21.79;43.13;101432.63;5056243;27;45525;-77
2023/01/10 08:33:39;;;;;;;;;0.00;0.00;;;;;21.71;42.65;101417.13;5050147;27;50386;-77
2023/01/10 08:36:05;;;;;;;;;0.00;0.00;;;;;21.70;43.15;101410.06;5064294;27;45769;-77
2023/01/10 08:38:31;;;;;;;;;1.00;1.00;;;;;21.79;43.04;101420.13;5074184;27;45536;-77
2023/01/10 08:40:57;;;;;;;;;0.00;0.00;;;;;21.73;42.82;101412.53;5092177;27;45149;-77
2023/01/10 08:43:22;;;;;;;;;0.50;0.00;;;;;21.73;43.02;101404.56;5080674;27;45948;-77
2023/01/10 08:45:48;;;;;;;;;1.75;0.00;;;;;21.82;42.83;101429.75;5061068;27;45210;-77
2023/01/10 08:48:14;;;;;;;;;1.25;0.00;;;;;21.66;42.80;101397.91;5060512;27;45376;-77
2023/01/10 08:50:39;;;;;;;;;0.00;0.00;;;;;21.76;42.64;101409.69;5090966;27;45430;-77
2023/01/10 08:53:05;;;;;;;;;0.75;0.00;;;;;21.88;43.00;101437.34;5062919;27;47971;-77
2023/01/10 08:55:30;;;;;;;;;0.75;0.50;;;;;21.80;42.86;101419.19;5068730;27;45633;-76
2023/01/10 08:57:59;;;;;;;;;0.25;0.00;;;;;21.72;42.65;101415.31;5085870;27;45385;-76
2023/01/10 09:00:24;;;;;;;;;1.00;0.00;;;;;21.82;42.73;101434.25;5088005;27;45450;-76
2023/01/10 09:02:50;;;;;;;;;1.50;0.00;;;;;21.79;42.80;101417.47;5091028;27;46213;-76
2023/01/10 09:05:16;;;;;;;;;1.00;0.25;;;;;21.92;42.76;101444.22;5090409;27;45239;-76
2023/01/10 09:07:41;;;;;;;;;1.00;1.00;;;;;21.85;42.71;101434.03;5074646;27;45406;-76
2023/01/10 09:10:08;;;;;;;;;3.00;1.00;;;;;21.91;42.75;101437.16;5080655;27;45438;-76
2023/01/10 09:15:17;;;;;;;;;0.00;0.00;;;;;21.86;42.59;101428.59;5081355;27;45268;-76
2023/01/10 09:17:43;;;;;;;;;2.25;0.25;;;;;21.90;42.63;101424.81;5073132;28;45298;-76
2023/01/10 09:20:10;;;;;;;;;1.25;1.00;;;;;21.83;42.43;101412.81;5079163;27;45542;-76
2023/01/10 09:22:36;;;;;;;;;2.00;0.75;;;;;21.88;42.62;101409.84;5076448;27;47466;-76
2023/01/10 09:25:02;;;;;;;;;0.75;0.75;;;;;21.89;42.70;101416.91;5082500;27;45614;-76
2023/01/10 09:27:28;;;;;;;;;0.00;0.00;;;;;21.83;42.45;101395.97;5090735;27;45352;-76
2023/01/10 09:29:53;;;;;;;;;2.00;0.00;;;;;21.80;42.47;101391.72;5092137;27;45550;-76
2023/01/10 09:32:19;;;;;;;;;0.00;0.00;;;;;21.85;42.56;101389.59;5094510;27;48010;-77
2023/01/10 09:34:44;;;;;;;;;0.25;0.25;;;;;21.80;42.63;101384.56;5076932;28;45558;-77
2023/01/10 09:37:10;;;;;;;;;0.00;0.00;;;;;21.89;42.50;101391.13;5059054;28;55262;-76
2023/01/10 09:39:35;;;;;;;;;1.25;0.75;;;;;21.83;42.63;101378.16;5078112;27;45416;-76
2023/01/10 09:42:27;;;;;;;;;0.50;0.00;;;;;22.03;42.57;101410.66;5102158;27;45589;-76
2023/01/10 09:45:04;;;;;;;;;0.75;0.75;;;;;22.04;42.86;101399.06;5086906;27;45408;-76
2023/01/10 09:47:53;;;;;;;;;1.25;1.25;;;;;22.04;42.38;101396.41;5110371;27;45280;-76
2023/01/10 09:50:24;;;;;;;;;1.75;1.50;;;;;22.05;42.59;101398.13;5068902;28;45962;-76
2023/01/10 09:52:52;;;;;;;;;0.75;0.00;;;;;21.88;42.53;101368.06;5082933;27;45271;-76
2023/01/10 09:55:31;;;;;;;;;1.75;0.00;;;;;22.05;42.40;101390.97;5084627;27;45521;-76
2023/01/10 09:57:59;;;;;;;;;0.75;0.25;;;;;21.89;42.36;101363.63;5072793;27;45542;-76
2023/01/10 10:00:47;;;;;;;;;2.00;1.00;;;;;22.06;42.22;101392.69;5067100;27;45272;-76
2023/01/10 10:03:35;;;;;;;;;1.00;1.00;;;;;22.07;42.53;101397.06;5063294;28;47613;-76
2023/01/10 10:06:02;;;;;;;;;1.50;0.50;;;;;21.91;42.47;101367.03;5074518;28;46550;-77
2023/01/10 10:08:27;;;;;;;;;1.75;1.00;;;;;21.90;42.61;101373.31;5077316;27;45473;-76
2023/01/10 10:11:03;;;;;;;;;3.50;1.00;;;;;21.96;42.61;101391.56;5079189;27;45328;-77
2023/01/10 10:13:50;;;;;;;;;1.00;1.00;;;;;22.10;42.51;101404.00;5078287;27;47166;-77
2023/01/10 10:16:26;;;;;;;;;2.00;1.00;;;;;22.10;42.24;101396.88;5084888;27;45328;-77
2023/01/10 10:19:15;;;;;;;;;2.00;1.00;;;;;22.12;42.75;101407.44;5098386;27;45422;-76
2023/01/10 10:22:08;;;;;;;;;1.50;1.25;;;;;22.07;42.10;101390.88;5083614;27;45683;-76
2023/01/10 10:24:59;;;;;;;;;0.75;0.75;;;;;22.04;42.15;101383.91;5075436;27;45416;-76
2023/01/10 10:27:35;;;;;;;;;2.25;0.75;;;;;22.13;42.61;101391.34;5076054;27;45511;-76
2023/01/10 10:30:23;;;;;;;;;1.50;1.50;;;;;22.15;42.56;101380.56;5085223;27;45546;-76
2023/01/10 10:32:52;;;;;;;;;0.00;0.00;;;;;22.15;42.55;101378.75;5064281;27;45258;-76
2023/01/10 10:35:32;;;;;;;;;2.25;1.00;;;;;22.03;42.15;101341.38;5061605;27;45770;-76
2023/01/10 10:38:02;;;;;;;;;1.00;1.00;;;;;21.98;42.12;101328.38;5076193;27;46227;-76
2023/01/10 10:40:32;;;;;;;;;1.00;1.00;;;;;22.03;42.55;101333.38;5055836;28;45566;-76
2023/01/10 10:43:10;;;;;;;;;2.50;1.75;;;;;22.10;42.67;101335.56;5090254;27;45268;-76
2023/01/10 10:45:41;;;;;;;;;1.75;1.00;;;;;22.18;42.26;101332.38;5054813;28;47102;-76
2023/01/10 10:48:24;;;;;;;;;2.25;0.50;;;;;22.03;42.48;101306.72;5070571;27;45430;-76
2023/01/10 10:50:57;;;;;;;;;2.25;1.50;;;;;22.09;42.55;101317.00;5072579;27;45426;-76
2023/01/10 10:53:22;;;;;;;;;3.50;1.00;;;;;22.14;41.99;101304.22;5073031;27;45442;-76
2023/01/10 10:55:51;;;;;;;;;2.00;1.00;;;;;22.06;42.47;101285.19;5064728;27;47676;-77
2023/01/10 10:58:17;;;;;;;;;1.75;1.75;;;;;22.09;42.14;101285.84;5081628;27;45654;-76
2023/01/10 11:00:42;;;;;;;;;2.00;1.50;;;;;22.08;42.16;101278.81;5075327;27;45276;-77
2023/01/10 11:03:17;;;;;;;;;1.25;1.00;;;;;22.23;42.31;101305.41;5092191;27;49026;-76
2023/01/10 11:05:45;;;;;;;;;4.00;1.00;;;;;22.06;42.26;101270.09;5071570;27;46692;-76
2023/01/10 11:08:12;;;;;;;;;3.50;1.50;;;;;22.08;42.35;101272.63;5055753;28;45537;-76
2023/01/10 11:10:39;;;;;;;;;1.25;1.25;;;;;22.23;42.36;101297.41;5076956;27;45502;-76
2023/01/10 11:13:16;;;;;;;;;3.25;1.00;;;;;22.22;41.83;101287.69;5056500;27;45461;-76
2023/01/10 11:15:46;;;;;;;;;1.25;1.25;;;;;22.11;42.12;101257.28;5069429;28;48025;-76
2023/01/10 11:18:19;;;;;;;;;2.75;1.00;;;;;22.17;42.22;101259.53;5076018;27;45453;-76
2023/01/10 11:21:11;;;;;;;;;6.25;1.50;;;;;22.10;42.16;101242.25;5065534;27;45528;-76
2023/01/10 11:23:39;;;;;;;;;3.50;2.00;;;;;22.21;41.80;101260.19;5077542;27;45528;-76
2023/01/10 11:26:24;;;;;;;;;1.00;1.00;;;;;22.21;41.62;101252.19;5087614;27;45481;-76
2023/01/10 11:29:06;;;;;;;;;2.25;1.25;;;;;22.16;41.70;101243.66;5074520;27;45504;-77
2023/01/10 11:31:31;;;;;;;;;5.00;1.00;;;;;22.07;41.79;101213.13;5086114;27;45243;-76
2023/01/10 11:33:58;;;;;;;;;3.00;2.00;;;;;22.03;41.94;101205.44;5075601;27;45253;-76
2023/01/10 11:36:23;;;;;;;;;3.25;1.75;;;;;22.06;42.16;101207.91;5060002;27;48003;-77
2023/01/10 11:39:00;;;;;;;;;1.25;1.25;;;;;22.01;41.91;101186.91;5067845;27;45504;-76
2023/01/10 11:41:30;;;;;;;;;2.00;1.00;;;;;22.04;42.12;101176.03;5065562;27;45391;-77
2023/01/10 11:44:16;;;;;;;;;4.00;2.00;;;;;22.10;41.65;101191.63;5066492;27;45268;-76